createdAt,value
2023-04-26T03:45:52.523Z,628.60
2023-04-26T03:48:19.233Z,623.22
2023-04-26T03:50:46.100Z,624.25
2023-04-26T03:53:13.169Z,618.25
2023-04-26T03:55:39.831Z,623.03
2023-04-26T03:58:08.075Z,622.28
2023-04-26T04:00:37.951Z,622.08
2023-04-26T04:03:07.323Z,625.28
2023-04-26T04:05:34.467Z,623.20
2023-04-26T04:08:01.755Z,614.53
2023-04-26T04:10:29.030Z,617.50
2023-04-26T04:12:55.856Z,617.67
2023-04-26T04:15:23.117Z,610.65
2023-04-26T04:17:49.824Z,617.83
2023-04-26T04:20:16.558Z,611.90
2023-04-26T04:22:43.304Z,613.72
2023-04-26T04:25:10.553Z,605.13
2023-04-26T04:27:37.904Z,613.20
2023-04-26T04:30:07.492Z,610.97
2023-04-26T04:32:34.282Z,604.75
2023-04-26T04:35:01.856Z,601.05
2023-04-26T04:37:33.570Z,599.70
2023-04-26T04:40:00.802Z,604.97
2023-04-26T04:42:28.238Z,605.63
2023-04-26T04:44:55.126Z,607.53
2023-04-26T04:47:21.753Z,603.88
2023-04-26T04:49:48.408Z,609.92
2023-04-26T04:52:16.885Z,605.80
2023-04-26T04:54:45.429Z,609.38
2023-04-26T04:57:13.748Z,607.42
2023-04-26T04:59:40.424Z,615.90
2023-04-26T05:02:07.126Z,604.08
2023-04-26T05:04:34.467Z,605.05
2023-04-26T05:07:02.053Z,615.13
2023-04-26T05:09:28.720Z,610.92
2023-04-26T05:11:55.411Z,611.97
2023-04-26T05:14:22.013Z,607.50
2023-04-26T05:16:48.836Z,607.95
2023-04-26T05:19:15.583Z,608.75
2023-04-26T05:21:42.219Z,612.50
2023-04-26T05:24:08.828Z,615.58
2023-04-26T05:26:35.918Z,614.85
2023-04-26T05:29:02.641Z,614.88
2023-04-26T05:31:29.355Z,611.95
2023-04-26T05:33:56.064Z,620.20
2023-04-26T05:36:22.823Z,624.88
2023-04-26T05:38:49.400Z,623.80
2023-04-26T05:41:16.061Z,626.60
2023-04-26T05:43:42.675Z,637.13
2023-04-26T05:46:09.422Z,641.25
2023-04-26T05:48:36.504Z,638.03
2023-04-26T05:51:03.196Z,638.50
2023-04-26T05:53:29.852Z,644.03
2023-04-26T05:55:56.641Z,647.60
2023-04-26T05:58:23.237Z,647.83
2023-04-26T06:00:49.838Z,659.65
2023-04-26T06:03:16.772Z,662.28
2023-04-26T06:05:43.987Z,658.33
2023-04-26T06:08:11.201Z,663.60
2023-04-26T06:10:38.000Z,670.78
2023-04-26T06:13:05.129Z,665.55
2023-04-26T06:15:32.118Z,671.23
2023-04-26T06:17:59.016Z,696.17
2023-04-26T06:20:26.169Z,695.40
2023-04-26T06:22:52.760Z,695.75
2023-04-26T06:25:19.480Z,700.78
2023-04-26T06:27:46.149Z,702.80
2023-04-26T06:30:13.245Z,699.53
2023-04-26T06:32:41.420Z,701.08
2023-04-26T06:35:08.582Z,705.05
2023-04-26T06:37:35.554Z,706.10
2023-04-26T06:40:02.249Z,719.15
2023-04-26T06:42:29.047Z,724.15
2023-04-26T06:44:56.024Z,730.45
2023-04-26T06:47:22.737Z,731.40
2023-04-26T06:49:49.390Z,740.05
2023-04-26T06:52:16.060Z,741.05
2023-04-26T06:54:53.664Z,754.53
2023-04-26T06:57:23.462Z,756.03
2023-04-26T06:59:50.078Z,761.53
2023-04-26T07:02:16.744Z,757.75
2023-04-26T07:04:44.028Z,759.20
2023-04-26T07:07:13.175Z,769.28
2023-04-26T07:09:41.093Z,765.83
2023-04-26T07:12:07.960Z,770.55
2023-04-26T07:14:37.174Z,786.38
2023-04-26T07:17:05.232Z,799.75
2023-04-26T07:19:31.909Z,800.22
2023-04-26T07:21:58.553Z,796.15
2023-04-26T07:24:25.800Z,796.70
2023-04-26T07:26:52.572Z,802.88
2023-04-26T07:29:19.380Z,808.25
2023-04-26T07:31:46.324Z,814.55
2023-04-26T07:34:13.115Z,819.60
2023-04-26T07:36:39.882Z,820.15
2023-04-26T07:39:06.804Z,823.70
2023-04-26T07:41:33.523Z,822.00
2023-04-26T07:44:00.579Z,829.50
2023-04-26T07:46:27.257Z,840.50
2023-04-26T07:48:53.956Z,828.42
2023-04-26T07:51:20.989Z,833.08
2023-04-26T07:53:47.686Z,836.08
2023-04-26T07:56:15.254Z,844.20
2023-04-26T07:58:41.913Z,839.42
2023-04-26T08:01:09.737Z,837.78
2023-04-26T08:03:36.943Z,827.73
2023-04-26T08:06:04.198Z,827.55
2023-04-26T08:08:32.216Z,832.00
2023-04-26T08:10:58.940Z,838.97
2023-04-26T08:13:28.540Z,844.65
2023-04-26T08:15:56.180Z,842.55
2023-04-26T08:18:22.855Z,843.40
2023-04-26T08:20:49.485Z,855.55
2023-04-26T08:23:16.133Z,877.55
2023-04-26T08:25:43.035Z,890.87
2023-04-26T08:28:09.707Z,900.42
2023-04-26T08:30:36.440Z,903.97
2023-04-26T08:33:03.838Z,908.78
2023-04-26T08:35:30.571Z,911.05
2023-04-26T08:37:57.261Z,913.22
2023-04-26T08:40:25.072Z,919.75
2023-04-26T08:42:53.809Z,919.67
2023-04-26T08:45:21.379Z,916.97
2023-04-26T08:47:50.139Z,928.45
2023-04-26T08:50:20.784Z,911.95
2023-04-26T08:52:51.291Z,906.05
2023-04-26T08:55:22.145Z,904.07
2023-04-26T08:57:50.149Z,900.42
2023-04-26T09:00:18.234Z,897.35
2023-04-26T09:02:51.167Z,879.77
2023-04-26T09:05:24.135Z,882.72
2023-04-26T09:07:52.997Z,884.17
2023-04-26T09:10:21.572Z,860.37
2023-04-26T09:12:55.432Z,852.50
2023-04-26T09:15:23.470Z,849.35
2023-04-26T09:17:51.763Z,850.40
2023-04-26T09:20:22.197Z,854.88
2023-04-26T09:22:53.569Z,846.20
2023-04-26T09:25:31.031Z,862.83
2023-04-26T09:27:58.873Z,897.97
2023-04-26T09:30:26.687Z,914.22
2023-04-26T09:33:04.841Z,954.25
2023-04-26T09:35:33.516Z,972.75
2023-04-26T09:38:10.528Z,988.53
2023-04-26T09:40:42.080Z,999.90
2023-04-26T09:43:12.956Z,999.90
2023-04-26T09:45:49.887Z,997.45
2023-04-26T09:48:30.330Z,988.10
2023-04-26T09:50:58.214Z,982.57
2023-04-26T09:53:38.278Z,978.60
2023-04-26T09:56:15.679Z,961.63
2023-04-26T09:58:48.692Z,941.42
2023-04-26T10:01:17.731Z,947.90
2023-04-26T10:03:44.992Z,937.15
2023-04-26T10:06:15.803Z,936.67
2023-04-26T10:08:43.364Z,932.38
2023-04-26T10:11:13.855Z,925.67
2023-04-26T10:13:41.832Z,920.53
2023-04-26T10:16:10.085Z,920.55
2023-04-26T10:18:37.722Z,940.70
2023-04-26T10:21:22.477Z,964.10
2023-04-26T10:23:49.744Z,969.47
2023-04-26T10:26:53.246Z,948.78
2023-04-26T10:29:23.843Z,962.10
2023-04-26T10:32:02.577Z,972.88
2023-04-26T10:34:33.560Z,978.27
2023-04-26T10:37:20.494Z,991.83
2023-04-26T10:39:47.168Z,997.00
2023-04-26T10:42:25.449Z,999.90
2023-04-26T10:45:28.871Z,999.90
2023-04-26T10:48:17.366Z,999.90
2023-04-26T10:51:02.508Z,999.90
2023-04-26T10:53:53.796Z,999.90
2023-04-26T10:56:23.876Z,999.90
2023-04-26T11:01:41.792Z,995.50
2023-04-26T11:04:11.463Z,997.17
2023-04-26T11:06:54.903Z,993.38
2023-04-26T11:09:48.865Z,992.50
2023-04-26T11:12:16.490Z,977.08
2023-04-26T11:14:45.497Z,975.63
2023-04-26T11:17:13.097Z,968.92
2023-04-26T11:19:41.889Z,971.17
2023-04-26T11:22:08.916Z,969.25
2023-04-26T11:24:39.141Z,972.37
2023-04-26T11:27:10.152Z,963.35
2023-04-26T11:29:37.369Z,965.38
2023-04-26T11:32:04.704Z,968.65
2023-04-26T11:34:34.304Z,956.35
2023-04-26T11:37:05.648Z,952.85
2023-04-26T11:39:36.828Z,958.22
2023-04-26T11:42:11.396Z,942.85
2023-04-26T11:44:39.747Z,939.78
2023-04-26T11:47:07.910Z,930.42
2023-04-26T11:49:37.142Z,933.58
2023-04-26T11:52:05.087Z,928.90
2023-04-26T11:54:33.655Z,934.55
2023-04-26T11:57:00.941Z,925.33
2023-04-26T11:59:30.844Z,926.83
2023-04-26T12:01:58.281Z,938.60
2023-04-26T12:04:31.451Z,947.78
2023-04-26T12:06:58.628Z,951.22
2023-04-26T12:09:29.835Z,947.60
2023-04-26T12:12:06.170Z,940.47
2023-04-26T12:14:37.971Z,939.85
2023-04-26T12:17:06.276Z,936.70
2023-04-26T12:19:37.251Z,931.00
2023-04-26T12:22:04.853Z,921.97
2023-04-26T12:24:38.513Z,925.72
2023-04-26T12:27:06.874Z,930.20
2023-04-26T12:29:34.326Z,933.53
2023-04-26T12:32:02.045Z,935.92
2023-04-26T12:34:29.052Z,940.55
2023-04-26T12:36:55.897Z,948.93
2023-04-26T12:39:22.671Z,951.03
2023-04-26T12:41:49.616Z,937.40
2023-04-26T12:44:16.457Z,929.63
2023-04-26T12:46:43.424Z,931.60
2023-04-26T12:49:10.137Z,927.78
2023-04-26T12:51:36.798Z,925.67
2023-04-26T12:54:03.528Z,928.60
2023-04-26T12:56:30.488Z,923.83
2023-04-26T12:58:59.022Z,928.97
2023-04-26T13:01:26.424Z,927.83
2023-04-26T13:03:54.150Z,925.92
2023-04-26T13:06:20.874Z,934.22
2023-04-26T13:08:47.564Z,940.58
2023-04-26T13:11:14.635Z,934.03
2023-04-26T13:13:44.126Z,929.72
2023-04-26T13:16:12.451Z,929.42
2023-04-26T13:18:39.839Z,929.55
2023-04-26T13:21:06.578Z,929.33
2023-04-26T13:23:33.313Z,927.37
2023-04-26T13:25:59.939Z,946.70
2023-04-26T13:28:26.636Z,956.35
2023-04-26T13:30:53.385Z,958.95
2023-04-26T13:33:21.289Z,957.53
2023-04-26T13:35:48.499Z,958.95
2023-04-26T13:38:16.066Z,962.83
2023-04-26T13:40:43.741Z,958.35
2023-04-26T13:43:10.522Z,951.35
2023-04-26T13:45:37.182Z,933.60
2023-04-26T13:48:04.430Z,935.97
2023-04-26T13:50:31.284Z,931.17
2023-04-26T13:52:58.021Z,948.58
2023-04-26T13:55:25.622Z,948.97
2023-04-26T13:57:52.305Z,960.78
2023-04-26T14:00:19.324Z,961.83
2023-04-26T14:02:46.215Z,967.13
2023-04-26T14:05:13.262Z,967.08
2023-04-26T14:07:41.321Z,967.47
2023-04-26T14:10:08.362Z,975.08
2023-04-26T14:12:35.056Z,979.72
2023-04-26T14:15:06.080Z,978.45
2023-04-26T14:17:33.371Z,979.03
2023-04-26T14:20:00.134Z,974.20
2023-04-26T14:22:27.473Z,970.40
2023-04-26T14:24:54.188Z,968.80
2023-04-26T14:27:20.836Z,974.67
2023-04-26T14:29:47.527Z,973.83
2023-04-26T14:32:14.273Z,976.00
2023-04-26T14:34:41.048Z,973.35
2023-04-26T14:37:08.029Z,973.08
2023-04-26T14:39:34.945Z,973.55
2023-04-26T14:42:01.753Z,971.90
2023-04-26T14:44:28.711Z,975.15
2023-04-26T14:46:55.609Z,975.42
2023-04-26T14:49:22.374Z,979.35
2023-04-26T14:51:50.239Z,988.60
2023-04-26T14:54:18.471Z,987.20
2023-04-26T14:56:45.313Z,986.58
2023-04-26T14:59:11.944Z,991.20
2023-04-26T15:01:38.731Z,995.20
2023-04-26T15:04:05.539Z,994.43
2023-04-26T15:06:33.420Z,997.65
2023-04-26T15:09:00.206Z,992.77
2023-04-26T15:11:26.919Z,996.53
2023-04-26T15:13:53.548Z,995.30
2023-04-26T15:16:20.287Z,992.38
2023-04-26T15:18:47.014Z,987.88
2023-04-26T15:21:18.173Z,986.15
2023-04-26T15:23:45.141Z,989.87
2023-04-26T15:26:11.829Z,990.92
2023-04-26T15:28:38.611Z,987.20
2023-04-26T15:31:08.017Z,986.83
2023-04-26T15:33:34.764Z,986.00
2023-04-26T15:36:01.445Z,986.85
2023-04-26T15:38:28.160Z,980.38
2023-04-26T15:40:54.909Z,970.75
2023-04-26T15:43:21.924Z,969.38
2023-04-26T15:45:49.568Z,969.25
2023-04-26T15:48:16.474Z,968.22
2023-04-26T15:50:43.114Z,969.25
2023-04-26T15:53:09.926Z,968.13
2023-04-26T15:55:36.878Z,980.47
2023-04-26T15:58:06.448Z,970.07
2023-04-26T16:00:33.934Z,961.47
2023-04-26T16:03:02.074Z,968.78
2023-04-26T16:05:28.858Z,968.15
2023-04-26T16:07:55.712Z,959.30
2023-04-26T16:10:22.627Z,962.40
2023-04-26T16:12:49.670Z,963.63
2023-04-26T16:15:16.423Z,957.70
2023-04-26T16:17:43.482Z,959.67
2023-04-26T16:20:10.675Z,959.97
2023-04-26T16:22:37.442Z,960.70
2023-04-26T16:25:06.784Z,971.17
2023-04-26T16:27:33.827Z,965.35
2023-04-26T16:30:00.838Z,964.60
2023-04-26T16:32:27.728Z,965.13
2023-04-26T16:34:54.437Z,962.95
2023-04-26T16:37:21.214Z,970.80
2023-04-26T16:39:47.839Z,968.33
2023-04-26T16:42:14.420Z,970.25
2023-04-26T16:44:41.290Z,968.53
2023-04-26T16:47:07.922Z,970.17
2023-04-26T16:49:34.640Z,969.05
2023-04-26T16:52:01.754Z,964.92
2023-04-26T16:54:29.110Z,969.58
2023-04-26T16:56:56.143Z,962.85
2023-04-26T16:59:23.155Z,958.95
2023-04-26T17:01:50.514Z,938.15
2023-04-26T17:04:17.332Z,927.33
2023-04-26T17:06:45.440Z,938.72
2023-04-26T17:09:12.463Z,925.45
2023-04-26T17:11:43.406Z,931.00
2023-04-26T17:14:10.271Z,926.03
2023-04-26T17:16:37.060Z,925.25
2023-04-26T17:19:04.149Z,921.03
2023-04-26T17:21:31.829Z,912.87
2023-04-26T17:23:58.587Z,913.70
2023-04-26T17:26:25.344Z,913.60
2023-04-26T17:28:52.828Z,919.92
2023-04-26T17:31:19.588Z,908.55
2023-04-26T17:33:46.310Z,906.23
2023-04-26T17:36:12.959Z,904.33
2023-04-26T17:38:39.724Z,910.67
2023-04-26T17:41:06.336Z,909.97
2023-04-26T17:43:33.035Z,907.22
2023-04-26T17:45:59.786Z,906.03
2023-04-26T17:48:26.439Z,904.20
2023-04-26T17:50:53.426Z,904.47
2023-04-26T17:53:20.379Z,905.10
2023-04-26T17:55:47.252Z,906.30
2023-04-26T17:58:13.845Z,904.22
2023-04-26T18:00:40.494Z,906.67
2023-04-26T18:03:07.949Z,900.15
2023-04-26T18:05:34.703Z,901.10
2023-04-26T18:08:01.326Z,900.95
2023-04-26T18:10:28.014Z,896.85
2023-04-26T18:12:54.663Z,899.85
2023-04-26T18:15:21.369Z,905.30
2023-04-26T18:17:48.046Z,897.92
2023-04-26T18:20:14.783Z,894.15
2023-04-26T18:22:41.659Z,896.58
2023-04-26T18:25:08.858Z,888.60
2023-04-26T18:27:35.537Z,892.13
2023-04-26T18:30:02.214Z,896.20
2023-04-26T18:32:29.075Z,891.40
2023-04-26T18:34:55.882Z,892.97
2023-04-26T18:37:22.516Z,893.45
2023-04-26T18:39:49.250Z,894.40
2023-04-26T18:42:15.963Z,890.37
2023-04-26T18:44:42.602Z,887.50
2023-04-26T18:47:09.280Z,876.97
2023-04-26T18:49:35.970Z,884.40
2023-04-26T18:52:02.658Z,880.33
2023-04-26T18:54:30.968Z,882.95
2023-04-26T18:56:57.585Z,873.87
2023-04-26T18:59:24.255Z,880.70
2023-04-26T19:01:50.912Z,874.80
2023-04-26T19:04:17.766Z,880.33
2023-04-26T19:06:44.480Z,871.05
2023-04-26T19:09:11.749Z,877.75
2023-04-26T19:11:38.818Z,880.05
2023-04-26T19:14:06.107Z,879.08
2023-04-26T19:16:32.770Z,881.50
2023-04-26T19:18:59.572Z,886.42
2023-04-26T19:21:26.688Z,884.28
2023-04-26T19:23:53.366Z,883.45
2023-04-26T19:26:20.013Z,885.72
2023-04-26T19:28:46.699Z,876.53
2023-04-26T19:31:13.585Z,875.13
2023-04-26T19:33:40.549Z,888.67
2023-04-26T19:36:08.683Z,883.45
2023-04-26T19:38:35.344Z,882.27
2023-04-26T19:41:02.296Z,879.37
2023-04-26T19:43:29.391Z,877.25
2023-04-26T19:45:56.167Z,879.17
2023-04-26T19:48:22.842Z,886.10
2023-04-26T19:50:49.550Z,877.93
2023-04-26T19:53:16.184Z,879.22
2023-04-26T19:55:42.836Z,868.58
2023-04-26T19:58:12.540Z,863.30
2023-04-26T20:00:40.245Z,865.08
2023-04-26T20:03:07.087Z,866.90
2023-04-26T20:05:34.151Z,868.08
2023-04-26T20:08:01.793Z,871.67
2023-04-26T20:10:33.562Z,871.03
2023-04-26T20:13:00.789Z,857.67
2023-04-26T20:15:27.887Z,851.97
2023-04-26T20:17:54.872Z,845.20
2023-04-26T20:20:21.710Z,841.13
2023-04-26T20:22:48.388Z,842.90
2023-04-26T20:25:15.137Z,846.40
2023-04-26T20:27:41.980Z,844.22
2023-04-26T20:30:09.185Z,842.92
2023-04-26T20:32:35.918Z,843.10
2023-04-26T20:35:02.708Z,836.63
2023-04-26T20:37:29.320Z,843.50
2023-04-26T20:39:56.470Z,831.97
2023-04-26T20:42:23.879Z,846.50
2023-04-26T20:44:50.687Z,844.80
2023-04-26T20:47:17.683Z,841.05
2023-04-26T20:49:44.449Z,842.80
2023-04-26T20:52:11.547Z,846.90
2023-04-26T20:54:38.163Z,841.33
2023-04-26T20:57:04.845Z,840.30
2023-04-26T20:59:31.591Z,834.22
2023-04-26T21:01:58.352Z,835.55
2023-04-26T21:04:25.376Z,833.38
2023-04-26T21:06:52.190Z,837.10
2023-04-26T21:09:18.839Z,840.38
2023-04-26T21:11:45.472Z,839.75
2023-04-26T21:14:13.735Z,835.30
2023-04-26T21:16:40.647Z,837.17
2023-04-26T21:19:08.100Z,832.80
2023-04-26T21:21:35.077Z,840.67
2023-04-26T21:24:02.912Z,842.83
2023-04-26T21:26:29.917Z,841.60
2023-04-26T21:28:56.554Z,841.13
2023-04-26T21:31:23.391Z,843.60
2023-04-26T21:33:50.671Z,839.88
2023-04-26T21:36:17.370Z,845.13
2023-04-26T21:38:44.110Z,832.45
2023-04-26T21:41:10.842Z,848.22
2023-04-26T21:43:37.431Z,840.38
2023-04-26T21:46:04.140Z,841.75
2023-04-26T21:48:30.814Z,839.33
2023-04-26T21:50:57.442Z,840.75
2023-04-26T21:53:24.125Z,838.65
2023-04-26T21:55:54.806Z,833.97
2023-04-26T21:58:22.427Z,832.22
2023-04-26T22:00:49.774Z,826.00
2023-04-26T22:03:17.326Z,819.05
2023-04-26T22:05:44.323Z,828.43
2023-04-26T22:08:11.166Z,827.33
2023-04-26T22:10:37.923Z,828.75
2023-04-26T22:13:05.292Z,830.03
2023-04-26T22:15:32.148Z,827.85
2023-04-26T22:17:59.075Z,829.03
2023-04-26T22:20:26.501Z,821.92
2023-04-26T22:22:53.911Z,825.80
2023-04-26T22:25:21.020Z,821.25
2023-04-26T22:27:48.054Z,826.88
2023-04-26T22:30:24.631Z,836.22
2023-04-26T22:32:54.671Z,827.13
2023-04-26T22:35:22.226Z,825.40
2023-04-26T22:37:48.994Z,824.75
2023-04-26T22:40:16.171Z,826.17
2023-04-26T22:42:43.537Z,824.30
2023-04-26T22:45:11.744Z,826.87
2023-04-26T22:47:39.117Z,820.83
2023-04-26T22:50:07.394Z,820.08
2023-04-26T22:52:34.813Z,820.25
2023-04-26T22:55:01.646Z,818.70
2023-04-26T22:57:29.677Z,813.20
2023-04-26T22:59:56.664Z,827.15
